createdAt,value
2019-01-25T00:00:26.737Z,43.80
2019-01-25T00:01:26.758Z,44.20
2019-01-25T00:02:26.700Z,43.90
2019-01-25T00:03:26.680Z,45.00
2019-01-25T00:04:26.683Z,44.50
2019-01-25T00:05:26.665Z,43.20
2019-01-25T00:06:26.659Z,43.50
2019-01-25T00:07:26.645Z,44.90
2019-01-25T00:08:26.649Z,44.00
2019-01-25T00:09:26.607Z,43.40
2019-01-25T00:10:26.596Z,44.40
2019-01-25T00:11:26.624Z,45.20
2019-01-25T00:12:26.595Z,43.30
2019-01-25T00:13:26.563Z,44.30
2019-01-25T00:14:26.553Z,43.00
2019-01-25T00:15:26.544Z,43.00
2019-01-25T00:16:26.547Z,43.70
2019-01-25T00:17:26.542Z,44.00
2019-01-25T00:18:26.546Z,43.00
2019-01-25T00:19:26.526Z,43.00
2019-01-25T00:20:26.487Z,42.40
2019-01-25T00:21:26.475Z,43.60
2019-01-25T00:22:26.481Z,44.40
2019-01-25T00:23:26.460Z,43.20
2019-01-25T00:24:26.444Z,44.20
2019-01-25T00:25:26.448Z,44.60
2019-01-25T00:26:26.433Z,45.30
2019-01-25T00:27:26.439Z,45.40
2019-01-25T00:28:26.420Z,45.50
2019-01-25T00:29:26.388Z,44.60
2019-01-25T00:30:26.401Z,44.40
2019-01-25T00:31:26.367Z,45.80
2019-01-25T00:32:26.374Z,46.10
2019-01-25T00:33:26.379Z,45.40
2019-01-25T00:34:26.335Z,45.90
2019-01-25T00:35:26.327Z,45.20
2019-01-25T00:36:26.363Z,45.40
2019-01-25T00:37:26.318Z,45.60
2019-01-25T00:38:26.300Z,45.90
2019-01-25T00:39:26.295Z,45.80
2019-01-25T00:40:26.282Z,45.50
2019-01-25T00:41:26.262Z,45.50
2019-01-25T00:42:26.249Z,44.60
2019-01-25T00:43:26.246Z,46.30
2019-01-25T00:44:26.229Z,44.80
2019-01-25T00:45:26.219Z,46.40
2019-01-25T00:46:26.229Z,45.90
2019-01-25T00:47:26.206Z,46.20
2019-01-25T00:48:26.198Z,46.30
2019-01-25T00:49:26.186Z,45.70
2019-01-25T00:50:26.183Z,47.40
2019-01-25T00:51:26.152Z,46.00
2019-01-25T00:52:26.152Z,45.70
2019-01-25T00:53:26.183Z,44.90
2019-01-25T00:54:26.116Z,45.80
2019-01-25T00:55:26.109Z,46.30
2019-01-25T00:56:26.115Z,45.60
2019-01-25T00:57:26.086Z,45.20
2019-01-25T00:58:26.086Z,46.40
2019-01-25T00:59:26.071Z,45.50
2019-01-25T01:00:26.051Z,44.80
2019-01-25T01:01:27.041Z,46.40
2019-01-25T01:02:26.047Z,45.90
2019-01-25T01:03:26.041Z,45.30
2019-01-25T01:04:26.013Z,46.30
2019-01-25T01:05:26.011Z,45.10
2019-01-25T01:06:26.005Z,46.30
2019-01-25T01:07:25.981Z,45.10
2019-01-25T01:08:25.970Z,44.90
2019-01-25T01:09:25.974Z,46.50
2019-01-25T01:10:25.952Z,46.30
2019-01-25T01:11:25.945Z,46.50
2019-01-25T01:12:25.952Z,47.40
2019-01-25T01:13:25.915Z,46.30
2019-01-25T01:14:25.945Z,46.20
2019-01-25T01:15:25.895Z,44.50
2019-01-25T01:16:25.918Z,45.10
2019-01-25T01:17:25.879Z,46.30
2019-01-25T01:18:25.873Z,45.30
2019-01-25T01:19:25.875Z,45.90
2019-01-25T01:20:25.846Z,44.90
2019-01-25T01:21:25.844Z,44.60
2019-01-25T01:22:25.817Z,45.40
2019-01-25T01:23:25.804Z,44.50
2019-01-25T01:24:25.800Z,42.30
2019-01-25T01:25:25.802Z,43.70
2019-01-25T01:26:25.784Z,44.00
2019-01-25T01:27:25.758Z,42.80
2019-01-25T01:28:25.752Z,43.10
2019-01-25T01:29:25.744Z,42.70
2019-01-25T01:30:25.763Z,43.30
2019-01-25T01:31:25.729Z,43.30
2019-01-25T01:32:25.704Z,44.30
2019-01-25T01:33:25.695Z,42.70
2019-01-25T01:34:25.682Z,42.20
2019-01-25T01:35:25.671Z,43.50
2019-01-25T01:36:25.672Z,42.20
2019-01-25T01:37:25.654Z,43.00
2019-01-25T01:38:25.654Z,42.50
2019-01-25T01:39:25.647Z,42.40
2019-01-25T01:40:25.620Z,43.50
2019-01-25T01:41:25.630Z,42.70
2019-01-25T01:42:25.606Z,44.60
2019-01-25T01:43:25.585Z,43.80
2019-01-25T01:44:25.599Z,45.80
2019-01-25T01:45:25.584Z,44.30
2019-01-25T01:46:25.611Z,43.60
2019-01-25T01:47:25.546Z,43.90
2019-01-25T01:48:25.556Z,44.30
2019-01-25T01:49:25.538Z,43.40
2019-01-25T01:50:25.525Z,43.50
2019-01-25T01:51:25.502Z,43.50
2019-01-25T01:52:25.506Z,42.70
2019-01-25T01:53:25.476Z,42.40
2019-01-25T01:54:25.470Z,42.70
2019-01-25T01:55:25.464Z,42.60
2019-01-25T01:56:25.448Z,43.10
2019-01-25T01:57:25.434Z,44.10
2019-01-25T01:58:25.421Z,43.50
2019-01-25T01:59:25.408Z,44.30
2019-01-25T02:00:25.412Z,43.60
2019-01-25T02:01:25.401Z,44.40
2019-01-25T02:02:25.406Z,41.60
2019-01-25T02:03:25.375Z,42.80
2019-01-25T02:04:25.378Z,44.00
2019-01-25T02:05:25.352Z,43.40
2019-01-25T02:06:25.370Z,43.70
2019-01-25T02:07:25.340Z,43.20
2019-01-25T02:08:25.339Z,43.60
2019-01-25T02:09:25.314Z,44.20
2019-01-25T02:10:29.668Z,44.00
2019-01-25T02:11:25.292Z,44.40
2019-01-25T02:12:25.272Z,43.50
2019-01-25T02:13:25.276Z,43.50
2019-01-25T02:14:25.264Z,44.20
2019-01-25T02:15:25.241Z,43.20
2019-01-25T02:16:25.239Z,42.50
2019-01-25T02:17:25.211Z,42.60
2019-01-25T02:18:25.233Z,41.70
2019-01-25T02:19:25.204Z,41.80
2019-01-25T02:20:25.182Z,43.00
2019-01-25T02:21:25.172Z,41.80
2019-01-25T02:22:25.161Z,41.90
2019-01-25T02:23:25.150Z,42.00
2019-01-25T02:24:25.166Z,41.70
2019-01-25T02:25:25.126Z,42.70
2019-01-25T02:26:25.114Z,42.90
2019-01-25T02:27:25.107Z,41.40
2019-01-25T02:28:25.092Z,42.30
2019-01-25T02:29:25.097Z,43.30
2019-01-25T02:30:25.109Z,40.50
2019-01-25T02:31:25.066Z,40.40
2019-01-25T02:32:25.049Z,39.00
2019-01-25T02:33:25.040Z,39.50
2019-01-25T02:34:25.042Z,39.60
2019-01-25T02:35:25.031Z,39.20
2019-01-25T02:36:25.041Z,39.60
2019-01-25T02:37:24.997Z,39.70
2019-01-25T02:38:24.984Z,39.70
2019-01-25T02:39:24.998Z,39.00
2019-01-25T02:40:24.976Z,38.90
2019-01-25T02:41:24.956Z,38.90
2019-01-25T02:42:24.949Z,38.70
2019-01-25T02:43:24.938Z,39.20
2019-01-25T02:44:24.934Z,39.40
2019-01-25T02:45:24.957Z,39.50
2019-01-25T02:46:24.936Z,38.70
2019-01-25T02:47:24.905Z,39.40
2019-01-25T02:48:24.883Z,39.40
2019-01-25T02:49:24.873Z,39.30
2019-01-25T02:50:24.869Z,39.70
2019-01-25T02:51:24.877Z,40.10
2019-01-25T02:52:24.830Z,39.90
2019-01-25T02:53:24.857Z,39.00
2019-01-25T02:54:24.817Z,37.90
2019-01-25T02:55:24.816Z,40.00
2019-01-25T02:56:24.808Z,38.80
2019-01-25T02:57:24.783Z,39.60
2019-01-25T02:58:24.785Z,39.70
2019-01-25T02:59:24.758Z,39.40
2019-01-25T03:00:24.748Z,40.20
2019-01-25T03:01:24.763Z,39.40
2019-01-25T03:02:24.722Z,39.50
2019-01-25T03:03:24.712Z,40.00
2019-01-25T03:04:24.715Z,40.20
2019-01-25T03:05:24.694Z,39.70
2019-01-25T03:06:24.685Z,40.20
2019-01-25T03:07:24.673Z,39.50
2019-01-25T03:08:24.657Z,39.30
2019-01-25T03:09:24.674Z,39.40
2019-01-25T03:10:29.007Z,38.90
2019-01-25T03:11:24.641Z,38.70
2019-01-25T03:12:24.651Z,40.20
2019-01-25T03:13:24.626Z,39.60
2019-01-25T03:14:24.627Z,39.10
2019-01-25T03:15:24.625Z,40.60
2019-01-25T03:16:24.629Z,39.70
2019-01-25T03:17:24.634Z,40.30
2019-01-25T03:18:24.564Z,40.10
2019-01-25T03:19:24.573Z,39.70
2019-01-25T03:20:24.541Z,37.90
2019-01-25T03:21:24.516Z,37.90
2019-01-25T03:22:24.513Z,39.60
2019-01-25T03:23:24.514Z,39.10
2019-01-25T03:24:24.487Z,39.40
2019-01-25T03:25:24.495Z,40.00
2019-01-25T03:26:24.486Z,39.90
2019-01-25T03:27:24.468Z,39.20
2019-01-25T03:28:24.460Z,39.30
2019-01-25T03:29:24.439Z,39.50
2019-01-25T03:30:24.428Z,40.00
2019-01-25T03:31:24.408Z,40.00
2019-01-25T03:32:24.416Z,39.10
2019-01-25T03:33:24.417Z,40.10
2019-01-25T03:34:24.387Z,39.00
2019-01-25T03:35:24.392Z,37.70
2019-01-25T03:36:24.416Z,39.80
2019-01-25T03:37:24.368Z,39.60
2019-01-25T03:38:24.330Z,39.70
2019-01-25T03:39:24.331Z,40.00
2019-01-25T03:40:24.320Z,39.50
2019-01-25T03:41:24.301Z,40.70
2019-01-25T03:42:24.286Z,38.30
2019-01-25T03:43:24.291Z,39.20
2019-01-25T03:44:24.268Z,39.60
2019-01-25T03:45:24.283Z,40.30
2019-01-25T03:46:24.243Z,38.70
2019-01-25T03:47:24.235Z,38.80
2019-01-25T03:48:24.235Z,39.80
2019-01-25T03:49:24.225Z,38.90
2019-01-25T03:50:24.203Z,39.90
2019-01-25T03:51:24.207Z,39.00
2019-01-25T03:52:24.180Z,39.00
2019-01-25T03:53:24.166Z,39.40
2019-01-25T03:54:24.159Z,38.10
2019-01-25T03:55:24.160Z,39.20
2019-01-25T03:56:24.133Z,38.70
2019-01-25T03:57:24.134Z,39.60
2019-01-25T03:58:24.118Z,40.10
2019-01-25T03:59:24.110Z,39.20
2019-01-25T04:00:24.098Z,38.80
2019-01-25T04:01:24.084Z,37.80
2019-01-25T04:02:24.066Z,40.10
2019-01-25T04:03:24.056Z,38.20
2019-01-25T04:04:24.051Z,37.00
2019-01-25T04:05:24.055Z,37.20
2019-01-25T04:06:24.024Z,38.60
2019-01-25T04:07:24.043Z,39.10
2019-01-25T04:08:24.001Z,38.00
2019-01-25T04:09:23.993Z,37.60
2019-01-25T04:10:23.990Z,38.50
2019-01-25T04:11:23.979Z,39.30
2019-01-25T04:12:23.974Z,38.50
2019-01-25T04:13:23.954Z,38.40
2019-01-25T04:14:23.946Z,39.60
2019-01-25T04:15:23.947Z,38.30
2019-01-25T04:16:23.970Z,38.70
2019-01-25T04:17:23.916Z,37.40
2019-01-25T04:18:23.902Z,38.00
2019-01-25T04:19:23.919Z,37.90
2019-01-25T04:20:23.896Z,38.80
2019-01-25T04:21:23.905Z,37.20
2019-01-25T04:22:23.866Z,38.30
2019-01-25T04:23:23.846Z,39.30
2019-01-25T04:24:23.839Z,38.10
2019-01-25T04:25:23.881Z,38.70
2019-01-25T04:26:23.824Z,38.40
2019-01-25T04:27:23.813Z,38.80
2019-01-25T04:28:23.794Z,39.80
2019-01-25T04:29:23.789Z,39.20
2019-01-25T04:30:23.776Z,39.50
2019-01-25T04:31:23.817Z,39.10
2019-01-25T04:32:23.756Z,39.10
2019-01-25T04:33:23.750Z,39.90
2019-01-25T04:34:23.746Z,39.30
2019-01-25T04:35:23.721Z,38.90
2019-01-25T04:36:23.731Z,39.70
2019-01-25T04:37:23.723Z,38.60
2019-01-25T04:38:23.702Z,39.10
2019-01-25T04:39:23.696Z,40.70
2019-01-25T04:40:23.701Z,39.20
2019-01-25T04:41:23.651Z,40.80
2019-01-25T04:42:23.651Z,39.40
2019-01-25T04:43:23.643Z,40.80
2019-01-25T04:44:23.620Z,40.30
2019-01-25T04:45:23.623Z,42.70
2019-01-25T04:46:23.637Z,41.10
2019-01-25T04:47:23.593Z,41.90
2019-01-25T04:48:23.580Z,41.80
2019-01-25T04:49:23.572Z,42.80
2019-01-25T04:50:23.552Z,43.00
2019-01-25T04:51:23.570Z,43.10
2019-01-25T04:52:23.565Z,43.90
2019-01-25T04:53:23.537Z,43.70
2019-01-25T04:54:23.529Z,44.10
2019-01-25T04:55:23.532Z,44.40
2019-01-25T04:56:23.487Z,44.70
2019-01-25T04:57:23.479Z,43.30
2019-01-25T04:58:23.490Z,42.60
2019-01-25T04:59:23.477Z,43.20
2019-01-25T05:00:23.455Z,42.60
2019-01-25T05:01:23.483Z,44.20
2019-01-25T05:02:23.429Z,44.40
2019-01-25T05:03:23.429Z,44.20
2019-01-25T05:04:23.399Z,44.90
2019-01-25T05:05:23.456Z,43.60
2019-01-25T05:06:23.394Z,44.20
2019-01-25T05:07:23.437Z,43.70
2019-01-25T05:08:23.388Z,43.00
2019-01-25T05:09:23.361Z,43.40
2019-01-25T05:10:23.339Z,41.40
2019-01-25T05:11:23.339Z,40.20
2019-01-25T05:12:23.320Z,41.10
2019-01-25T05:13:23.381Z,41.10
2019-01-25T05:14:23.364Z,40.80
2019-01-25T05:15:23.309Z,40.00
2019-01-25T05:16:23.275Z,40.30
2019-01-25T05:17:23.278Z,38.70
2019-01-25T05:18:23.278Z,39.90
2019-01-25T05:19:23.266Z,38.90
2019-01-25T05:20:23.282Z,39.90
2019-01-25T05:21:23.259Z,39.30
2019-01-25T05:22:23.204Z,39.10
2019-01-25T05:23:23.215Z,38.60
2019-01-25T05:24:23.204Z,39.30
2019-01-25T05:25:23.172Z,39.70
2019-01-25T05:26:23.195Z,39.10
2019-01-25T05:27:23.184Z,41.50
2019-01-25T05:28:23.146Z,42.00
2019-01-25T05:29:23.131Z,41.00
2019-01-25T05:30:23.133Z,41.60
2019-01-25T05:31:23.114Z,40.60
2019-01-25T05:32:23.134Z,39.90
2019-01-25T05:33:23.112Z,40.30
2019-01-25T05:34:23.089Z,40.00
2019-01-25T05:35:23.091Z,41.30
2019-01-25T05:36:23.070Z,39.60
2019-01-25T05:37:23.054Z,41.40
2019-01-25T05:38:23.045Z,40.20
2019-01-25T05:39:23.025Z,40.80
2019-01-25T05:40:23.061Z,41.60
2019-01-25T05:41:28.337Z,41.80
2019-01-25T05:42:24.010Z,40.80
2019-01-25T05:43:22.986Z,41.60
2019-01-25T05:44:22.975Z,41.20
2019-01-25T05:45:22.991Z,40.60
2019-01-25T05:46:22.953Z,39.80
2019-01-25T05:47:22.970Z,40.30
2019-01-25T05:48:22.943Z,40.00
2019-01-25T05:49:22.920Z,39.40
2019-01-25T05:50:22.909Z,38.60
2019-01-25T05:51:22.945Z,38.80
2019-01-25T05:52:22.888Z,39.50
2019-01-25T05:53:22.905Z,41.30
2019-01-25T05:54:22.867Z,42.90
2019-01-25T05:55:22.856Z,40.80
2019-01-25T05:56:22.902Z,41.30
2019-01-25T05:57:22.864Z,42.80
2019-01-25T05:58:22.822Z,43.00
2019-01-25T05:59:22.807Z,43.90
2019-01-25T06:00:22.813Z,38.10
2019-01-25T06:01:22.789Z,41.90
2019-01-25T06:02:22.799Z,44.90
2019-01-25T06:03:22.769Z,41.70
2019-01-25T06:04:22.748Z,41.10
2019-01-25T06:05:22.808Z,40.10
2019-01-25T06:06:22.743Z,40.70
2019-01-25T06:07:22.727Z,39.40
2019-01-25T06:08:22.723Z,38.80
2019-01-25T06:09:22.718Z,40.30
2019-01-25T06:10:22.709Z,38.70
2019-01-25T06:11:22.694Z,41.40
2019-01-25T06:12:22.690Z,38.60
2019-01-25T06:13:22.664Z,39.20
2019-01-25T06:14:22.649Z,39.70
2019-01-25T06:15:22.631Z,39.90
2019-01-25T06:16:22.627Z,41.10
2019-01-25T06:17:22.618Z,38.60
2019-01-25T06:18:22.610Z,37.50
2019-01-25T06:19:22.592Z,36.30
2019-01-25T06:20:22.636Z,41.60
2019-01-25T06:21:22.581Z,40.10
2019-01-25T06:22:22.573Z,40.20
2019-01-25T06:23:22.560Z,40.90
2019-01-25T06:24:22.544Z,40.90
2019-01-25T06:25:22.537Z,38.70
2019-01-25T06:26:22.533Z,39.00
2019-01-25T06:27:22.526Z,38.40
2019-01-25T06:28:22.611Z,37.90
2019-01-25T06:29:22.483Z,37.40
2019-01-25T06:30:22.477Z,38.50
2019-01-25T06:31:22.455Z,39.20
2019-01-25T06:32:22.485Z,39.90
2019-01-25T06:33:22.461Z,39.90
2019-01-25T06:34:22.448Z,42.00
2019-01-25T06:35:22.416Z,42.40
2019-01-25T06:36:22.406Z,42.40
2019-01-25T06:37:22.407Z,43.30
2019-01-25T06:38:22.426Z,43.90
2019-01-25T06:39:22.378Z,44.10
2019-01-25T06:40:22.422Z,42.60
2019-01-25T06:41:22.359Z,42.60
2019-01-25T06:42:22.339Z,42.70
2019-01-25T06:43:22.336Z,43.60
2019-01-25T06:44:22.350Z,41.90
2019-01-25T06:45:22.324Z,42.90
2019-01-25T06:46:22.292Z,41.80
2019-01-25T06:47:22.285Z,43.20
2019-01-25T06:48:22.284Z,44.10
2019-01-25T06:49:22.279Z,43.00
2019-01-25T06:50:22.347Z,42.50
2019-01-25T06:51:22.263Z,43.20
2019-01-25T06:52:22.248Z,44.10
2019-01-25T06:53:22.217Z,43.50
2019-01-25T06:54:22.206Z,43.90
2019-01-25T06:55:22.221Z,44.40
2019-01-25T06:56:22.185Z,44.90
2019-01-25T06:57:22.189Z,43.90
2019-01-25T06:58:22.170Z,42.80
2019-01-25T06:59:22.155Z,44.60
2019-01-25T07:00:22.220Z,45.30
2019-01-25T07:01:22.138Z,45.60
2019-01-25T07:02:22.117Z,44.60
2019-01-25T07:03:22.107Z,43.50
2019-01-25T07:04:22.104Z,43.50
2019-01-25T07:05:22.103Z,44.00
2019-01-25T07:06:22.091Z,45.20
2019-01-25T07:07:22.131Z,44.20
2019-01-25T07:08:22.075Z,43.60
2019-01-25T07:09:22.054Z,42.90
2019-01-25T07:10:22.059Z,43.70
2019-01-25T07:11:22.024Z,43.70
2019-01-25T07:12:22.008Z,42.40
2019-01-25T07:13:22.000Z,42.20
2019-01-25T07:14:22.021Z,41.40
2019-01-25T07:15:21.974Z,39.60
2019-01-25T07:16:22.009Z,38.00
2019-01-25T07:17:22.029Z,38.40
2019-01-25T07:18:21.957Z,37.20
2019-01-25T07:19:21.939Z,37.30
2019-01-25T07:20:21.925Z,37.20
2019-01-25T07:21:21.939Z,34.40
2019-01-25T07:22:21.925Z,34.10
2019-01-25T07:23:21.934Z,33.80
2019-01-25T07:24:21.896Z,32.30
2019-01-25T07:25:21.871Z,32.80
2019-01-25T07:26:21.878Z,32.60
2019-01-25T07:27:21.855Z,32.60
2019-01-25T07:28:21.844Z,32.80
2019-01-25T07:29:21.865Z,32.60
2019-01-25T07:30:21.823Z,32.20
2019-01-25T07:31:21.811Z,33.00
2019-01-25T07:32:21.819Z,32.50
2019-01-25T07:33:21.988Z,32.70
2019-01-25T07:34:21.780Z,33.40
2019-01-25T07:35:21.758Z,32.70
2019-01-25T07:36:21.756Z,33.80
2019-01-25T07:37:21.766Z,32.30
2019-01-25T07:38:21.793Z,32.50
2019-01-25T07:39:21.717Z,31.60
2019-01-25T07:40:21.714Z,30.60
2019-01-25T07:41:21.726Z,31.00
2019-01-25T07:42:21.722Z,31.70
2019-01-25T07:43:21.675Z,32.70
2019-01-25T07:44:21.724Z,31.90
2019-01-25T07:45:21.801Z,30.90
2019-01-25T07:46:21.704Z,30.90
2019-01-25T07:47:21.765Z,31.80
2019-01-25T07:48:21.644Z,31.10
2019-01-25T07:49:21.650Z,31.80
2019-01-25T07:50:21.628Z,31.80
2019-01-25T07:51:21.620Z,31.50
2019-01-25T07:52:21.592Z,31.60
2019-01-25T07:53:22.322Z,30.80
2019-01-25T07:54:21.557Z,31.10
2019-01-25T07:55:21.559Z,32.20
2019-01-25T07:56:21.609Z,32.20
2019-01-25T07:57:21.519Z,33.20
2019-01-25T07:58:21.521Z,33.40
2019-01-25T07:59:21.519Z,32.00
2019-01-25T08:00:21.507Z,31.70
2019-01-25T08:01:21.532Z,32.60
2019-01-25T08:02:21.491Z,31.90
2019-01-25T08:03:21.464Z,31.50
2019-01-25T08:04:21.446Z,31.80
2019-01-25T08:05:21.478Z,32.80
2019-01-25T08:06:21.465Z,32.00
2019-01-25T08:07:21.455Z,32.30
2019-01-25T08:08:21.468Z,31.80
2019-01-25T08:09:21.411Z,32.90
2019-01-25T08:10:21.389Z,31.50
2019-01-25T08:11:21.401Z,31.20
2019-01-25T08:12:21.353Z,31.40
2019-01-25T08:13:21.356Z,31.90
2019-01-25T08:14:21.357Z,30.70
2019-01-25T08:15:21.340Z,31.30
2019-01-25T08:16:21.337Z,30.90
2019-01-25T08:17:21.330Z,31.00
2019-01-25T08:18:21.352Z,32.30
2019-01-25T08:19:21.292Z,31.90
2019-01-25T08:20:21.345Z,31.10
2019-01-25T08:21:21.279Z,32.50
2019-01-25T08:22:21.266Z,31.60
2019-01-25T08:23:21.359Z,32.20
2019-01-25T08:24:21.246Z,31.30
2019-01-25T08:25:21.217Z,32.00
2019-01-25T08:26:21.209Z,32.70
2019-01-25T08:27:21.201Z,31.90
2019-01-25T08:28:21.231Z,31.20
2019-01-25T08:29:27.688Z,32.00
2019-01-25T08:30:22.197Z,33.80
2019-01-25T08:31:21.159Z,32.30
2019-01-25T08:32:21.134Z,32.60
2019-01-25T08:33:21.276Z,32.10
2019-01-25T08:34:21.156Z,33.10
2019-01-25T08:35:21.196Z,33.80
2019-01-25T08:36:21.121Z,33.30
2019-01-25T08:37:21.117Z,37.10
2019-01-25T08:38:21.105Z,39.50
2019-01-25T08:39:21.078Z,38.80
2019-01-25T08:40:21.061Z,36.90
2019-01-25T08:41:21.170Z,33.20
2019-01-25T08:42:21.041Z,34.10
2019-01-25T08:43:21.034Z,33.90
2019-01-25T08:44:21.061Z,34.90
2019-01-25T08:45:21.022Z,34.30
2019-01-25T08:46:21.051Z,33.90
2019-01-25T08:47:20.973Z,35.70
2019-01-25T08:48:21.077Z,35.70
2019-01-25T08:49:21.111Z,35.70
2019-01-25T08:50:21.001Z,34.20
2019-01-25T08:51:20.964Z,33.50
2019-01-25T08:52:21.054Z,33.20
2019-01-25T08:53:20.923Z,33.90
2019-01-25T08:54:20.894Z,33.80
2019-01-25T08:55:21.436Z,33.80
2019-01-25T08:56:20.884Z,34.30
2019-01-25T08:57:21.040Z,33.00
2019-01-25T08:58:20.969Z,32.30
2019-01-25T08:59:20.862Z,33.70
2019-01-25T09:00:20.838Z,33.70
2019-01-25T09:01:20.819Z,33.50
2019-01-25T09:02:20.818Z,33.40
2019-01-25T09:03:20.819Z,33.10
2019-01-25T09:04:20.787Z,33.60
2019-01-25T09:05:20.788Z,33.40
2019-01-25T09:06:20.838Z,32.40
2019-01-25T09:07:20.751Z,33.80
2019-01-25T09:08:20.776Z,32.60
2019-01-25T09:09:20.794Z,32.30
2019-01-25T09:10:20.735Z,32.60
2019-01-25T09:11:20.829Z,30.70
2019-01-25T09:12:23.338Z,31.60
2019-01-25T09:13:20.745Z,31.10
2019-01-25T09:14:20.786Z,30.80
2019-01-25T09:15:20.671Z,30.60
2019-01-25T09:16:20.704Z,30.80
2019-01-25T09:17:20.654Z,31.10
2019-01-25T09:18:20.658Z,32.40
2019-01-25T09:19:20.673Z,30.70
2019-01-25T09:20:20.622Z,30.60
2019-01-25T09:21:20.623Z,31.20
2019-01-25T09:22:20.593Z,30.80
2019-01-25T09:23:20.595Z,31.50
2019-01-25T09:24:20.567Z,31.40
2019-01-25T09:25:20.622Z,32.40
2019-01-25T09:26:20.548Z,32.10
2019-01-25T09:27:20.534Z,32.00
2019-01-25T09:28:20.536Z,32.00
2019-01-25T09:29:20.725Z,31.70
2019-01-25T09:30:20.537Z,31.20
2019-01-25T09:31:20.504Z,32.80
2019-01-25T09:32:20.486Z,31.10
2019-01-25T09:33:20.570Z,31.10
2019-01-25T09:34:20.497Z,31.80
2019-01-25T09:35:20.453Z,29.80
2019-01-25T09:36:20.437Z,30.10
2019-01-25T09:37:20.425Z,30.20
2019-01-25T09:38:20.420Z,30.90
2019-01-25T09:39:20.424Z,30.00
2019-01-25T09:40:20.402Z,31.30
2019-01-25T09:41:20.384Z,31.00
2019-01-25T09:42:20.374Z,31.70
2019-01-25T09:43:20.405Z,31.50
2019-01-25T09:44:20.352Z,31.80
2019-01-25T09:45:20.405Z,29.50
2019-01-25T09:46:20.339Z,30.90
2019-01-25T09:47:20.315Z,30.40
2019-01-25T09:48:20.308Z,29.80
2019-01-25T09:49:20.295Z,30.00
2019-01-25T09:50:20.301Z,31.10
2019-01-25T09:51:20.295Z,31.70
2019-01-25T09:52:20.259Z,31.20
2019-01-25T09:53:20.248Z,30.30
2019-01-25T09:54:20.239Z,30.30
2019-01-25T09:55:20.226Z,29.70
2019-01-25T09:56:20.258Z,30.30
2019-01-25T09:57:20.210Z,30.90
2019-01-25T09:58:20.211Z,30.80
2019-01-25T09:59:20.187Z,30.90
2019-01-25T10:00:20.201Z,31.20
2019-01-25T10:01:20.168Z,31.30
2019-01-25T10:02:20.159Z,31.30
2019-01-25T10:03:20.141Z,30.90
2019-01-25T10:04:20.150Z,29.60
2019-01-25T10:05:20.145Z,30.30
2019-01-25T10:06:20.110Z,30.40
2019-01-25T10:07:20.103Z,31.00
2019-01-25T10:08:20.149Z,31.60
2019-01-25T10:09:20.077Z,30.70
2019-01-25T10:10:21.173Z,31.60
2019-01-25T10:11:20.072Z,30.00
2019-01-25T10:12:20.044Z,31.20
2019-01-25T10:13:20.034Z,30.50
2019-01-25T10:14:20.101Z,30.60
2019-01-25T10:15:20.017Z,30.70
2019-01-25T10:16:20.020Z,30.60
2019-01-25T10:17:20.010Z,30.90
2019-01-25T10:18:24.704Z,30.70
2019-01-25T10:19:20.970Z,30.80
2019-01-25T10:20:20.005Z,30.20
2019-01-25T10:21:19.957Z,30.40
2019-01-25T10:22:19.935Z,31.00
2019-01-25T10:23:19.947Z,30.90
2019-01-25T10:24:19.913Z,30.70
2019-01-25T10:25:19.900Z,31.30
2019-01-25T10:26:19.916Z,31.80
2019-01-25T10:27:19.887Z,30.90
2019-01-25T10:28:19.999Z,31.80
2019-01-25T10:29:19.911Z,31.90
2019-01-25T10:30:19.848Z,32.40
2019-01-25T10:31:19.833Z,34.70
2019-01-25T10:32:19.862Z,34.80
2019-01-25T10:33:19.812Z,33.90
2019-01-25T10:34:19.812Z,33.80
2019-01-25T10:35:19.817Z,31.70
2019-01-25T10:36:19.784Z,31.50
2019-01-25T10:37:19.776Z,30.70
2019-01-25T10:38:19.774Z,31.20
2019-01-25T10:39:19.747Z,32.20
2019-01-25T10:40:19.737Z,31.30
2019-01-25T10:41:19.752Z,31.60
2019-01-25T10:42:19.729Z,31.40
2019-01-25T10:43:19.706Z,33.70
2019-01-25T10:44:19.695Z,32.60
2019-01-25T10:45:19.686Z,32.30
2019-01-25T10:46:19.672Z,32.80
2019-01-25T10:47:19.686Z,33.40
2019-01-25T10:48:19.665Z,33.00
2019-01-25T10:49:19.763Z,32.40
2019-01-25T10:50:19.631Z,32.80
2019-01-25T10:51:19.624Z,34.20
2019-01-25T10:52:19.612Z,35.40
2019-01-25T10:53:19.645Z,32.60
2019-01-25T10:54:19.587Z,32.50
2019-01-25T10:55:19.580Z,31.20
2019-01-25T10:56:19.573Z,33.40
2019-01-25T10:57:19.553Z,34.00
2019-01-25T10:58:19.941Z,32.20
2019-01-25T10:59:19.541Z,33.20
2019-01-25T11:00:19.557Z,33.50
2019-01-25T11:01:19.516Z,32.70
2019-01-25T11:02:19.517Z,33.90
2019-01-25T11:03:19.489Z,32.90
2019-01-25T11:04:19.498Z,33.80
2019-01-25T11:05:19.469Z,34.50
2019-01-25T11:06:19.492Z,32.90
2019-01-25T11:07:19.480Z,33.40
2019-01-25T11:08:19.437Z,34.80
2019-01-25T11:09:19.434Z,35.60
2019-01-25T11:10:19.410Z,34.00
2019-01-25T11:11:19.403Z,34.00
2019-01-25T11:12:19.387Z,34.40
2019-01-25T11:13:19.420Z,34.60
2019-01-25T11:14:19.406Z,34.40
2019-01-25T11:15:19.365Z,32.40
2019-01-25T11:16:19.350Z,32.40
2019-01-25T11:17:19.337Z,31.60
2019-01-25T11:18:19.323Z,32.50
2019-01-25T11:19:19.387Z,32.90
2019-01-25T11:20:19.315Z,32.20
2019-01-25T11:21:19.291Z,32.00
2019-01-25T11:22:19.284Z,32.30
2019-01-25T11:23:19.269Z,31.00
2019-01-25T11:24:19.258Z,31.10
2019-01-25T11:25:19.292Z,32.00
2019-01-25T11:26:19.248Z,30.00
2019-01-25T11:27:19.229Z,29.90
2019-01-25T11:28:19.215Z,30.50
2019-01-25T11:29:19.209Z,29.90
2019-01-25T11:30:19.210Z,31.40
2019-01-25T11:31:19.232Z,30.70
2019-01-25T11:32:19.177Z,30.90
2019-01-25T11:33:19.166Z,30.60
2019-01-25T11:34:19.161Z,30.00
2019-01-25T11:35:19.144Z,30.30
2019-01-25T11:36:19.150Z,31.00
2019-01-25T11:37:19.157Z,31.20
2019-01-25T11:38:19.122Z,31.70
2019-01-25T11:39:19.104Z,32.00
2019-01-25T11:40:19.088Z,32.10
2019-01-25T11:41:19.443Z,31.90
2019-01-25T11:42:19.066Z,32.30
2019-01-25T11:43:19.056Z,33.00
2019-01-25T11:44:19.086Z,33.10
2019-01-25T11:45:19.047Z,32.80
2019-01-25T11:46:19.040Z,34.80
2019-01-25T11:47:19.030Z,33.00
2019-01-25T11:48:18.996Z,31.30
2019-01-25T11:49:19.000Z,33.60
2019-01-25T11:50:19.051Z,33.70
2019-01-25T11:51:19.976Z,29.90
2019-01-25T11:52:18.959Z,30.50
2019-01-25T11:53:18.952Z,30.80
2019-01-25T11:54:18.932Z,30.50
2019-01-25T11:55:18.920Z,30.60
2019-01-25T11:56:18.914Z,30.80
2019-01-25T11:57:18.909Z,30.60
2019-01-25T11:58:18.926Z,31.30
2019-01-25T11:59:18.881Z,31.60
2019-01-25T12:00:18.868Z,31.10
2019-01-25T12:01:18.856Z,32.20
2019-01-25T12:02:21.024Z,32.20
2019-01-25T12:03:18.835Z,33.40
2019-01-25T12:04:18.863Z,33.50
2019-01-25T12:05:18.815Z,32.90
2019-01-25T12:06:18.809Z,34.60
2019-01-25T12:07:18.792Z,32.70
2019-01-25T12:08:18.793Z,32.90
2019-01-25T12:09:18.775Z,32.00
2019-01-25T12:10:18.763Z,32.80
2019-01-25T12:11:18.807Z,31.30
2019-01-25T12:12:19.444Z,30.50
2019-01-25T12:13:18.731Z,32.10
2019-01-25T12:14:18.716Z,31.50
2019-01-25T12:15:18.705Z,32.20
2019-01-25T12:16:18.698Z,34.00
2019-01-25T12:17:18.724Z,32.80
2019-01-25T12:18:18.773Z,33.00
2019-01-25T12:19:18.655Z,33.40
2019-01-25T12:20:18.660Z,32.80
2019-01-25T12:21:18.651Z,32.80
2019-01-25T12:22:18.659Z,32.90
2019-01-25T12:23:18.662Z,32.70
2019-01-25T12:24:18.607Z,33.50
2019-01-25T12:25:18.610Z,33.50
2019-01-25T12:26:18.590Z,33.50
2019-01-25T12:27:18.606Z,33.40
2019-01-25T12:28:18.572Z,32.60
2019-01-25T12:29:18.660Z,32.90
2019-01-25T12:30:18.550Z,33.90
2019-01-25T12:31:18.528Z,33.90
2019-01-25T12:32:18.524Z,35.00
2019-01-25T12:33:18.529Z,33.40
2019-01-25T12:34:18.573Z,33.50
2019-01-25T12:35:18.488Z,34.30
2019-01-25T12:36:18.480Z,34.10
2019-01-25T12:37:18.530Z,34.00
2019-01-25T12:38:18.457Z,34.00
2019-01-25T12:39:18.458Z,34.40
2019-01-25T12:40:18.446Z,34.30
2019-01-25T12:41:18.422Z,34.30
2019-01-25T12:42:18.419Z,34.50
2019-01-25T12:43:23.885Z,33.50
2019-01-25T12:44:19.390Z,34.40
2019-01-25T12:45:18.401Z,34.90
2019-01-25T12:46:18.372Z,34.60
2019-01-25T12:47:18.356Z,34.30
2019-01-25T12:48:18.353Z,34.90
2019-01-25T12:49:18.394Z,34.10
2019-01-25T12:50:18.340Z,34.30
2019-01-25T12:51:18.332Z,32.80
2019-01-25T12:52:18.314Z,33.70